This is the latest recevied weather packets stored in our database for station/object IN3BXS. If no packets are shown the sender has not sent any weather packets the latest 10 day(s).
| Time | Temp. | Humidity | Pressure | Rain* | Wind** | Luminosity | Snow |
|---|---|---|---|---|---|---|---|
| 1777111227 | 17.78° C | 20% | 1009.8 hPa | 0 mm | - | - | - |
| 1777109426 | 17.22° C | 21% | 1010.2 hPa | 0 mm | - | - | - |
| 1777107625 | 16.11° C | 21% | 1010.5 hPa | 0 mm | - | - | - |
| 1777105825 | 15.56° C | 22% | 1010.9 hPa | 0 mm | - | - | - |
| 1777104026 | 14.44° C | 22% | 1011.4 hPa | 0 mm | - | - | - |
| 1777102226 | 13.33° C | 22% | 1011.8 hPa | 0 mm | - | - | - |
| 1777100425 | 11.67° C | 26% | 1013.7 hPa | 0 mm | - | - | - |
| 1777098626 | 10.56° C | 26% | 1014.1 hPa | 0 mm | - | - | - |
| 1777096825 | 8.89° C | 27% | 1014.9 hPa | 0 mm | - | - | - |
| 1777095026 | 6.67° C | 29% | 1014.7 hPa | 0 mm | - | - | - |
| 1777093227 | 5° C | 29% | 1015.6 hPa | 0 mm | - | - | - |
| 1777091425 | 5° C | 29% | 1015.6 hPa | 0 mm | - | - | - |
| 1777089625 | 5° C | 29% | 1015.5 hPa | 0 mm | - | - | - |
| 1777087826 | 5.56° C | 28% | 1015.2 hPa | 0 mm | - | - | - |
| 1777086025 | 6.11° C | 28% | 1015 hPa | 0 mm | - | - | - |
| 1777084226 | 6.67° C | 28% | 1014.8 hPa | 0 mm | - | - | - |
| 1777082425 | 7.78° C | 28% | 1014.4 hPa | 0 mm | - | - | - |
| 1777080625 | 7.22° C | 28% | 1014.4 hPa | 0 mm | - | - | - |
| 1777078826 | 7.78° C | 28% | 1014.3 hPa | 0 mm | - | - | - |
| 1777077026 | 7.22° C | 28% | 1014.5 hPa | 0 mm | - | - | - |
| 1777075225 | 7.22° C | 28% | 1015.6 hPa | 0 mm | - | - | - |
| 1777073425 | 8.33° C | 27% | 1015 hPa | 0 mm | - | - | - |
| 1777071625 | 8.33° C | 27% | 1015 hPa | 0 mm | - | - | - |
| 1777069825 | 8.89° C | 27% | 1014.8 hPa | 0 mm | - | - | - |
| 1777068025 | 8.89° C | 27% | 1014.8 hPa | 0 mm | - | - | - |
* Rain latest hour (hover to see other rain measurements)
** Current wind speed in m/s (hover to see current wind gust speed)